createdAt,value
2019-03-01T00:00:21.628Z,102.40
2019-03-01T00:01:21.611Z,101.30
2019-03-01T00:02:21.638Z,102.00
2019-03-01T00:03:21.605Z,96.30
2019-03-01T00:04:21.581Z,91.70
2019-03-01T00:05:21.572Z,101.00
2019-03-01T00:06:21.556Z,96.50
2019-03-01T00:07:21.545Z,101.30
2019-03-01T00:08:21.550Z,105.50
2019-03-01T00:09:21.530Z,104.70
2019-03-01T00:10:21.517Z,110.50
2019-03-01T00:11:21.518Z,106.10
2019-03-01T00:12:21.495Z,110.40
2019-03-01T00:13:21.504Z,107.40
2019-03-01T00:14:21.468Z,102.30
2019-03-01T00:15:21.513Z,109.50
2019-03-01T00:16:21.451Z,108.00
2019-03-01T00:17:21.443Z,112.20
2019-03-01T00:18:21.432Z,110.60
2019-03-01T00:19:21.414Z,107.20
2019-03-01T00:20:21.401Z,111.90
2019-03-01T00:21:21.403Z,114.00
2019-03-01T00:22:21.385Z,109.70
2019-03-01T00:23:21.375Z,105.00
2019-03-01T00:24:21.366Z,106.90
2019-03-01T00:25:21.367Z,111.40
2019-03-01T00:26:21.345Z,105.60
2019-03-01T00:27:21.327Z,96.00
2019-03-01T00:28:21.319Z,99.10
2019-03-01T00:29:21.315Z,105.70
2019-03-01T00:30:21.330Z,103.10
2019-03-01T00:31:21.285Z,110.20
2019-03-01T00:32:21.273Z,108.20
2019-03-01T00:33:21.269Z,98.70
2019-03-01T00:34:21.254Z,110.60
2019-03-01T00:35:21.246Z,108.60
2019-03-01T00:36:21.241Z,110.20
2019-03-01T00:37:21.218Z,101.10
2019-03-01T00:38:21.215Z,105.10
2019-03-01T00:39:21.204Z,98.00
2019-03-01T00:40:21.194Z,96.90
2019-03-01T00:41:21.173Z,103.50
2019-03-01T00:42:21.170Z,103.40
2019-03-01T00:43:21.149Z,100.90
2019-03-01T00:44:21.139Z,99.40
2019-03-01T00:45:21.128Z,97.00
2019-03-01T00:46:21.119Z,94.90
2019-03-01T00:47:21.143Z,96.60
2019-03-01T00:48:21.105Z,96.20
2019-03-01T00:49:21.090Z,97.50
2019-03-01T00:50:21.073Z,95.30
2019-03-01T00:51:21.062Z,92.90
2019-03-01T00:52:21.057Z,95.40
2019-03-01T00:53:21.084Z,96.50
2019-03-01T00:54:21.054Z,99.80
2019-03-01T00:55:21.027Z,92.50
2019-03-01T00:56:21.014Z,100.50
2019-03-01T00:57:21.010Z,99.60
2019-03-01T00:58:20.986Z,90.90
2019-03-01T00:59:20.986Z,105.60
2019-03-01T01:00:20.966Z,99.30
2019-03-01T01:01:20.978Z,103.80
2019-03-01T01:02:20.943Z,93.50
2019-03-01T01:03:20.938Z,100.90
2019-03-01T01:04:20.926Z,100.00
2019-03-01T01:05:20.913Z,102.10
2019-03-01T01:06:20.909Z,94.70
2019-03-01T01:07:20.893Z,95.60
2019-03-01T01:08:20.876Z,96.30
2019-03-01T01:09:20.871Z,100.80
2019-03-01T01:10:20.854Z,102.30
2019-03-01T01:11:20.844Z,95.60
2019-03-01T01:12:20.845Z,94.50
2019-03-01T01:13:20.848Z,98.50
2019-03-01T01:14:20.826Z,90.70
2019-03-01T01:15:20.804Z,98.30
2019-03-01T01:16:20.787Z,95.20
2019-03-01T01:17:20.777Z,96.90
2019-03-01T01:18:20.765Z,90.00
2019-03-01T01:19:20.772Z,90.90
2019-03-01T01:20:20.748Z,93.70
2019-03-01T01:21:20.741Z,91.80
2019-03-01T01:22:20.725Z,94.50
2019-03-01T01:23:20.713Z,94.90
2019-03-01T01:24:20.699Z,88.60
2019-03-01T01:25:20.692Z,86.50
2019-03-01T01:26:20.679Z,90.20
2019-03-01T01:27:20.711Z,88.10
2019-03-01T01:28:20.655Z,92.80
2019-03-01T01:29:20.675Z,86.40
2019-03-01T01:30:20.637Z,89.30
2019-03-01T01:31:20.622Z,88.40
2019-03-01T01:32:20.615Z,90.10
2019-03-01T01:33:20.601Z,91.20
2019-03-01T01:34:20.589Z,92.10
2019-03-01T01:35:20.596Z,82.70
2019-03-01T01:36:20.576Z,87.60
2019-03-01T01:37:20.569Z,82.80
2019-03-01T01:38:20.553Z,86.40
2019-03-01T01:39:20.534Z,88.50
2019-03-01T01:40:20.526Z,86.80
2019-03-01T01:41:20.517Z,85.70
2019-03-01T01:42:20.505Z,86.40
2019-03-01T01:43:20.502Z,89.40
2019-03-01T01:44:20.488Z,80.40
2019-03-01T01:45:20.468Z,83.00
2019-03-01T01:46:20.462Z,85.30
2019-03-01T01:47:20.457Z,83.70
2019-03-01T01:48:20.448Z,88.30
2019-03-01T01:49:20.427Z,83.10
2019-03-01T01:50:20.419Z,81.80
2019-03-01T01:51:20.405Z,85.90
2019-03-01T01:52:20.425Z,89.00
2019-03-01T01:53:20.412Z,83.40
2019-03-01T01:54:20.370Z,81.10
2019-03-01T01:55:20.366Z,85.20
2019-03-01T01:56:20.356Z,84.20
2019-03-01T01:57:20.347Z,87.00
2019-03-01T01:58:20.334Z,83.80
2019-03-01T01:59:20.318Z,92.60
2019-03-01T02:00:20.325Z,89.40
2019-03-01T02:01:20.306Z,89.20
2019-03-01T02:02:20.286Z,87.10
2019-03-01T02:03:20.271Z,85.50
2019-03-01T02:04:20.259Z,85.30
2019-03-01T02:05:20.250Z,97.60
2019-03-01T02:06:20.267Z,94.00
2019-03-01T02:07:20.231Z,86.30
2019-03-01T02:08:20.221Z,91.40
2019-03-01T02:09:20.205Z,94.10
2019-03-01T02:10:20.194Z,85.20
2019-03-01T02:11:20.182Z,94.30
2019-03-01T02:12:20.188Z,102.50
2019-03-01T02:13:20.165Z,98.80
2019-03-01T02:14:20.157Z,89.20
2019-03-01T02:15:20.141Z,94.90
2019-03-01T02:16:20.128Z,96.80
2019-03-01T02:17:20.147Z,95.40
2019-03-01T02:18:20.110Z,100.90
2019-03-01T02:19:20.101Z,87.40
2019-03-01T02:20:20.092Z,95.30
2019-03-01T02:21:20.081Z,101.70
2019-03-01T02:22:20.062Z,97.30
2019-03-01T02:23:20.115Z,94.90
2019-03-01T02:24:20.048Z,91.80
2019-03-01T02:25:20.029Z,93.80
2019-03-01T02:26:20.019Z,99.40
2019-03-01T02:27:20.013Z,92.10
2019-03-01T02:28:20.004Z,95.60
2019-03-01T02:29:20.004Z,95.60
2019-03-01T02:30:19.976Z,88.80
2019-03-01T02:31:19.981Z,94.00
2019-03-01T02:32:22.609Z,90.80
2019-03-01T02:33:19.950Z,96.90
2019-03-01T02:34:19.941Z,94.80
2019-03-01T02:35:19.922Z,96.00
2019-03-01T02:36:19.924Z,102.00
2019-03-01T02:37:19.942Z,92.50
2019-03-01T02:38:19.896Z,92.50
2019-03-01T02:39:19.887Z,96.20
2019-03-01T02:40:19.867Z,89.70
2019-03-01T02:41:19.864Z,100.60
2019-03-01T02:42:19.854Z,100.30
2019-03-01T02:43:19.875Z,98.40
2019-03-01T02:44:19.822Z,103.60
2019-03-01T02:45:19.830Z,100.90
2019-03-01T02:46:19.811Z,95.90
2019-03-01T02:47:19.791Z,96.30
2019-03-01T02:48:19.785Z,94.30
2019-03-01T02:49:19.778Z,93.60
2019-03-01T02:50:19.780Z,96.00
2019-03-01T02:51:19.751Z,91.80
2019-03-01T02:52:19.765Z,88.00
2019-03-01T02:53:19.737Z,94.60
2019-03-01T02:54:19.722Z,98.00
2019-03-01T02:55:19.739Z,89.20
2019-03-01T02:56:19.690Z,94.60
2019-03-01T02:57:19.685Z,94.00
2019-03-01T02:58:19.669Z,90.70
2019-03-01T02:59:19.682Z,85.30
2019-03-01T03:00:19.699Z,83.80
2019-03-01T03:01:19.645Z,81.30
2019-03-01T03:02:19.633Z,84.60
2019-03-01T03:03:19.619Z,92.90
2019-03-01T03:04:19.639Z,92.10
2019-03-01T03:05:19.592Z,83.80
2019-03-01T03:06:19.612Z,91.50
2019-03-01T03:07:19.574Z,88.20
2019-03-01T03:08:19.563Z,90.20
2019-03-01T03:09:19.552Z,90.50
2019-03-01T03:10:19.553Z,91.70
2019-03-01T03:11:19.533Z,86.00
2019-03-01T03:12:19.521Z,82.50
2019-03-01T03:13:19.509Z,86.70
2019-03-01T03:14:19.508Z,87.80
2019-03-01T03:15:19.488Z,85.70
2019-03-01T03:16:19.479Z,91.40
2019-03-01T03:17:19.471Z,83.90
2019-03-01T03:18:19.454Z,85.00
2019-03-01T03:19:19.446Z,83.30
2019-03-01T03:20:19.437Z,81.70
2019-03-01T03:21:19.433Z,84.10
2019-03-01T03:22:19.407Z,81.10
2019-03-01T03:23:19.398Z,79.90
2019-03-01T03:24:19.393Z,82.70
2019-03-01T03:25:19.385Z,84.30
2019-03-01T03:26:19.405Z,81.60
2019-03-01T03:27:19.353Z,81.70
2019-03-01T03:28:19.384Z,79.60
2019-03-01T03:29:19.328Z,79.80
2019-03-01T03:30:19.318Z,80.80
2019-03-01T03:31:19.312Z,74.40
2019-03-01T03:32:19.312Z,83.90
2019-03-01T03:33:19.327Z,82.70
2019-03-01T03:34:19.273Z,85.60
2019-03-01T03:35:19.274Z,88.80
2019-03-01T03:36:19.256Z,88.10
2019-03-01T03:37:19.380Z,85.20
2019-03-01T03:38:19.231Z,90.10
2019-03-01T03:39:19.243Z,78.70
2019-03-01T03:40:19.206Z,73.80
2019-03-01T03:41:19.196Z,77.80
2019-03-01T03:42:19.195Z,82.90
2019-03-01T03:43:19.181Z,87.50
2019-03-01T03:44:19.170Z,77.20
2019-03-01T03:45:19.173Z,87.80
2019-03-01T03:46:19.148Z,82.40
2019-03-01T03:47:19.166Z,82.90
2019-03-01T03:48:19.124Z,80.60
2019-03-01T03:49:19.109Z,83.90
2019-03-01T03:50:19.101Z,78.40
2019-03-01T03:51:19.088Z,74.60
2019-03-01T03:52:19.075Z,70.90
2019-03-01T03:53:19.089Z,76.30
2019-03-01T03:54:19.058Z,76.60
2019-03-01T03:55:19.049Z,75.30
2019-03-01T03:56:19.038Z,67.00
2019-03-01T03:57:19.019Z,74.50
2019-03-01T03:58:19.072Z,80.30
2019-03-01T03:59:19.005Z,80.90
2019-03-01T04:00:18.989Z,75.00
2019-03-01T04:01:18.979Z,78.20
2019-03-01T04:02:18.968Z,81.90
2019-03-01T04:03:18.957Z,82.20
2019-03-01T04:04:18.992Z,78.80
2019-03-01T04:05:18.932Z,78.90
2019-03-01T04:06:18.922Z,91.80
2019-03-01T04:07:18.914Z,84.70
2019-03-01T04:08:18.913Z,83.10
2019-03-01T04:09:18.889Z,79.40
2019-03-01T04:10:18.882Z,78.10
2019-03-01T04:11:18.885Z,80.90
2019-03-01T04:12:18.860Z,83.40
2019-03-01T04:13:18.861Z,79.50
2019-03-01T04:14:18.831Z,79.80
2019-03-01T04:15:18.854Z,84.00
2019-03-01T04:16:18.811Z,79.10
2019-03-01T04:17:18.805Z,82.90
2019-03-01T04:18:18.794Z,77.80
2019-03-01T04:19:18.778Z,79.00
2019-03-01T04:20:18.790Z,80.20
2019-03-01T04:21:18.771Z,85.10
2019-03-01T04:22:18.749Z,81.30
2019-03-01T04:23:18.739Z,82.50
2019-03-01T04:24:18.729Z,87.50
2019-03-01T04:25:18.726Z,77.70
2019-03-01T04:26:18.747Z,82.40
2019-03-01T04:27:18.690Z,88.50
2019-03-01T04:28:18.678Z,85.80
2019-03-01T04:29:18.671Z,89.90
2019-03-01T04:30:18.671Z,85.20
2019-03-01T04:31:18.649Z,78.80
2019-03-01T04:32:18.674Z,86.40
2019-03-01T04:33:18.629Z,82.50
2019-03-01T04:34:18.615Z,84.30
2019-03-01T04:35:18.605Z,82.90
2019-03-01T04:36:18.605Z,81.00
2019-03-01T04:37:18.577Z,83.10
2019-03-01T04:38:18.645Z,85.40
2019-03-01T04:39:18.560Z,82.00
2019-03-01T04:40:18.551Z,80.90
2019-03-01T04:41:18.540Z,81.80
2019-03-01T04:42:18.528Z,85.20
2019-03-01T04:43:18.517Z,85.30
2019-03-01T04:44:18.533Z,83.70
2019-03-01T04:45:18.495Z,91.10
2019-03-01T04:46:18.480Z,91.00
2019-03-01T04:47:18.477Z,85.30
2019-03-01T04:48:18.458Z,89.40
2019-03-01T04:49:18.452Z,84.80
2019-03-01T04:50:18.443Z,86.40
2019-03-01T04:51:18.425Z,92.10
2019-03-01T04:52:18.418Z,89.20
2019-03-01T04:53:18.403Z,94.20
2019-03-01T04:54:18.426Z,93.50
2019-03-01T04:55:18.394Z,91.50
2019-03-01T04:56:18.374Z,95.80
2019-03-01T04:57:18.364Z,92.40
2019-03-01T04:58:18.347Z,92.00
2019-03-01T04:59:18.335Z,91.90
2019-03-01T05:00:18.349Z,88.00
2019-03-01T05:01:18.318Z,93.60
2019-03-01T05:02:18.310Z,90.50
2019-03-01T05:03:18.296Z,96.10
2019-03-01T05:04:18.284Z,87.20
2019-03-01T05:05:18.279Z,86.80
2019-03-01T05:06:18.259Z,81.90
2019-03-01T05:07:18.247Z,84.50
2019-03-01T05:08:18.238Z,83.60
2019-03-01T05:09:18.244Z,86.70
2019-03-01T05:10:18.244Z,84.10
2019-03-01T05:11:18.219Z,89.70
2019-03-01T05:12:18.198Z,91.40
2019-03-01T05:13:18.186Z,92.50
2019-03-01T05:14:18.172Z,91.10
2019-03-01T05:15:18.166Z,88.30
2019-03-01T05:16:18.167Z,86.00
2019-03-01T05:17:18.143Z,89.80
2019-03-01T05:18:18.129Z,93.30
2019-03-01T05:19:18.144Z,93.50
2019-03-01T05:20:18.145Z,92.50
2019-03-01T05:21:18.101Z,92.20
2019-03-01T05:22:18.083Z,100.90
2019-03-01T05:23:18.080Z,104.70
2019-03-01T05:24:18.061Z,98.90
2019-03-01T05:25:18.057Z,104.00
2019-03-01T05:26:18.050Z,99.60
2019-03-01T05:27:18.033Z,98.50
2019-03-01T05:28:18.023Z,104.10
2019-03-01T05:29:18.007Z,100.80
2019-03-01T05:30:18.002Z,101.80
2019-03-01T05:31:17.995Z,107.00
2019-03-01T05:32:17.986Z,105.90
2019-03-01T05:33:17.977Z,114.00
2019-03-01T05:34:17.951Z,107.60
2019-03-01T05:35:17.945Z,113.30
2019-03-01T05:36:17.936Z,120.20
2019-03-01T05:37:17.925Z,113.70
2019-03-01T05:38:21.778Z,122.70
2019-03-01T05:39:17.902Z,113.40
2019-03-01T05:40:17.900Z,102.10
2019-03-01T05:41:17.873Z,113.60
2019-03-01T05:42:17.864Z,111.30
2019-03-01T05:43:17.851Z,124.30
2019-03-01T05:44:17.869Z,121.20
2019-03-01T05:45:17.834Z,113.30
2019-03-01T05:46:17.819Z,123.50
2019-03-01T05:47:17.812Z,105.80
2019-03-01T05:48:17.803Z,127.70
2019-03-01T05:49:17.790Z,112.20
2019-03-01T05:50:17.793Z,100.20
2019-03-01T05:51:17.770Z,112.30
2019-03-01T05:52:17.756Z,122.10
2019-03-01T05:53:17.746Z,118.10
2019-03-01T05:54:17.768Z,111.50
2019-03-01T05:55:17.728Z,102.20
2019-03-01T05:56:17.712Z,89.40
2019-03-01T05:57:17.704Z,95.70
2019-03-01T05:58:17.687Z,95.70
2019-03-01T05:59:17.681Z,101.20
2019-03-01T06:00:17.672Z,107.00
2019-03-01T06:01:17.658Z,116.30
2019-03-01T06:02:17.643Z,116.90
2019-03-01T06:03:17.631Z,89.10
2019-03-01T06:04:17.620Z,98.10
2019-03-01T06:05:17.658Z,105.30
2019-03-01T06:06:17.598Z,116.80
2019-03-01T06:07:17.591Z,115.50
2019-03-01T06:08:17.581Z,108.50
2019-03-01T06:09:17.569Z,133.40
2019-03-01T06:10:17.569Z,107.60
2019-03-01T06:11:17.546Z,115.20
2019-03-01T06:12:17.538Z,121.70
2019-03-01T06:13:17.526Z,128.20
2019-03-01T06:14:17.514Z,131.60
2019-03-01T06:15:17.512Z,116.90
2019-03-01T06:16:17.488Z,116.50
2019-03-01T06:17:17.476Z,138.50
2019-03-01T06:18:17.477Z,130.40
2019-03-01T06:19:17.457Z,145.70
2019-03-01T06:20:17.459Z,132.80
2019-03-01T06:21:17.441Z,125.60
2019-03-01T06:22:17.422Z,117.30
2019-03-01T06:23:17.416Z,129.60
2019-03-01T06:24:17.404Z,142.70
2019-03-01T06:25:17.396Z,144.20
2019-03-01T06:26:17.391Z,148.50
2019-03-01T06:27:17.384Z,143.50
2019-03-01T06:28:17.362Z,143.50
2019-03-01T06:29:17.351Z,136.80
2019-03-01T06:30:17.337Z,135.40
2019-03-01T06:31:17.337Z,130.90
2019-03-01T06:32:17.329Z,136.80
2019-03-01T06:33:17.304Z,134.30
2019-03-01T06:34:17.303Z,143.80
2019-03-01T06:35:17.282Z,135.80
2019-03-01T06:36:17.266Z,131.20
2019-03-01T06:37:17.264Z,123.10
2019-03-01T06:38:17.259Z,133.90
2019-03-01T06:39:17.236Z,139.00
2019-03-01T06:40:17.227Z,128.20
2019-03-01T06:41:17.234Z,137.20
2019-03-01T06:42:17.211Z,128.80
2019-03-01T06:43:17.228Z,134.40
2019-03-01T06:44:17.183Z,138.50
2019-03-01T06:45:17.170Z,126.40
2019-03-01T06:46:17.162Z,97.10
2019-03-01T06:47:17.147Z,119.00
2019-03-01T06:48:17.140Z,112.40
2019-03-01T06:49:17.141Z,126.90
2019-03-01T06:50:17.120Z,121.00
2019-03-01T06:51:17.102Z,128.70
2019-03-01T06:52:17.090Z,130.10
2019-03-01T06:53:17.079Z,138.10
2019-03-01T06:54:17.100Z,129.40
2019-03-01T06:55:17.083Z,129.30
2019-03-01T06:56:17.050Z,132.70
2019-03-01T06:57:17.042Z,113.90
2019-03-01T06:58:17.033Z,134.40
2019-03-01T06:59:17.015Z,133.60
2019-03-01T07:00:17.025Z,139.00
2019-03-01T07:01:16.993Z,148.10
2019-03-01T07:02:16.979Z,127.00
2019-03-01T07:03:16.975Z,133.90
2019-03-01T07:04:17.030Z,119.00
2019-03-01T07:05:16.957Z,139.30
2019-03-01T07:06:16.955Z,127.10
2019-03-01T07:07:16.928Z,145.60
2019-03-01T07:08:16.917Z,127.80
2019-03-01T07:09:16.943Z,126.70
2019-03-01T07:10:16.896Z,141.90
2019-03-01T07:11:16.892Z,124.20
2019-03-01T07:12:16.874Z,139.50
2019-03-01T07:13:16.863Z,126.50
2019-03-01T07:14:16.853Z,129.50
2019-03-01T07:15:16.872Z,140.30
2019-03-01T07:16:16.825Z,123.20
2019-03-01T07:17:16.828Z,119.50
2019-03-01T07:18:16.808Z,135.80
2019-03-01T07:19:16.798Z,130.60
2019-03-01T07:20:16.780Z,137.30
2019-03-01T07:21:16.809Z,135.40
2019-03-01T07:22:16.763Z,132.30
2019-03-01T07:23:16.751Z,134.10
2019-03-01T07:24:16.831Z,137.80
2019-03-01T07:25:16.725Z,150.90
2019-03-01T07:26:16.715Z,146.90
2019-03-01T07:27:16.721Z,140.40
2019-03-01T07:28:16.692Z,150.00
2019-03-01T07:29:16.683Z,152.50
2019-03-01T07:30:16.695Z,139.50
2019-03-01T07:31:16.663Z,145.80
2019-03-01T07:32:16.662Z,139.60
2019-03-01T07:33:16.661Z,140.30
2019-03-01T07:34:16.635Z,123.90
2019-03-01T07:35:16.640Z,132.00
2019-03-01T07:36:16.609Z,112.80
2019-03-01T07:37:16.598Z,127.20
2019-03-01T07:38:16.602Z,134.50
2019-03-01T07:39:16.575Z,143.10
2019-03-01T07:40:16.566Z,128.70
2019-03-01T07:41:16.547Z,139.20
2019-03-01T07:42:16.544Z,132.60
2019-03-01T07:43:16.590Z,131.80
2019-03-01T07:44:16.521Z,136.30
2019-03-01T07:45:16.513Z,119.30
2019-03-01T07:46:16.492Z,117.70
2019-03-01T07:47:16.490Z,143.20
2019-03-01T07:48:16.477Z,123.40
2019-03-01T07:49:16.474Z,128.70
2019-03-01T07:50:16.511Z,140.30
2019-03-01T07:51:16.444Z,132.60
2019-03-01T07:52:16.429Z,132.70
2019-03-01T07:53:16.415Z,109.60
2019-03-01T07:54:16.703Z,116.00
2019-03-01T07:55:16.394Z,127.00
2019-03-01T07:56:16.402Z,127.90
2019-03-01T07:57:16.374Z,129.00
2019-03-01T07:58:16.370Z,126.80
2019-03-01T07:59:16.386Z,129.40
2019-03-01T08:00:16.346Z,127.50
2019-03-01T08:01:16.341Z,133.80
2019-03-01T08:02:16.322Z,129.40
2019-03-01T08:03:16.313Z,113.60
2019-03-01T08:04:16.307Z,129.60
2019-03-01T08:05:16.761Z,135.20
2019-03-01T08:06:16.285Z,132.50
2019-03-01T08:07:16.275Z,130.60
2019-03-01T08:08:16.262Z,136.10
2019-03-01T08:09:16.256Z,130.50
2019-03-01T08:10:20.723Z,143.90
2019-03-01T08:11:16.237Z,135.60
2019-03-01T08:12:16.209Z,128.50
2019-03-01T08:13:17.717Z,126.00
2019-03-01T08:14:16.192Z,126.10
2019-03-01T08:15:16.190Z,123.90
2019-03-01T08:16:16.681Z,119.50
2019-03-01T08:17:16.155Z,111.10
2019-03-01T08:18:16.170Z,129.40
2019-03-01T08:19:22.626Z,123.30
2019-03-01T08:20:17.135Z,128.50
2019-03-01T08:21:16.112Z,122.30
2019-03-01T08:22:16.112Z,122.30
2019-03-01T08:23:16.097Z,117.80
2019-03-01T08:24:16.083Z,129.50
2019-03-01T08:25:22.497Z,122.60
2019-03-01T08:26:17.063Z,119.20
2019-03-01T08:27:16.057Z,124.40
2019-03-01T08:28:18.526Z,118.20
2019-03-01T08:29:17.085Z,119.20
2019-03-01T08:30:16.022Z,120.40
2019-03-01T08:31:17.537Z,112.10
2019-03-01T08:32:15.997Z,113.50
2019-03-01T08:33:15.985Z,110.20
2019-03-01T08:34:17.743Z,110.70
2019-03-01T08:35:15.962Z,108.80
2019-03-01T08:36:15.948Z,104.50
2019-03-01T08:37:17.660Z,113.20
2019-03-01T08:38:15.935Z,107.20
2019-03-01T08:39:15.926Z,112.00
2019-03-01T08:40:15.910Z,115.70
2019-03-01T08:41:15.898Z,113.30
2019-03-01T08:42:15.934Z,109.80
2019-03-01T08:43:15.876Z,112.80
2019-03-01T08:44:15.864Z,113.70
2019-03-01T08:45:15.859Z,115.00
2019-03-01T08:46:15.844Z,110.90
2019-03-01T08:47:20.254Z,106.20
2019-03-01T08:48:16.860Z,110.50
2019-03-01T08:49:15.814Z,113.10
2019-03-01T08:50:15.798Z,107.50
2019-03-01T08:51:15.798Z,108.20
2019-03-01T08:52:15.773Z,107.10
2019-03-01T08:53:16.156Z,107.00
2019-03-01T08:54:15.767Z,108.30
2019-03-01T08:55:15.742Z,107.80
2019-03-01T08:56:15.738Z,111.20
2019-03-01T08:57:15.731Z,114.10
2019-03-01T08:58:15.708Z,120.00
2019-03-01T08:59:17.441Z,112.00
2019-03-01T09:00:15.692Z,107.90
2019-03-01T09:01:15.686Z,114.10
2019-03-01T09:02:15.667Z,108.60
2019-03-01T09:03:17.219Z,111.30
2019-03-01T09:04:17.581Z,113.80
2019-03-01T09:05:15.647Z,114.80
2019-03-01T09:06:15.635Z,102.30
2019-03-01T09:07:15.632Z,106.60
2019-03-01T09:08:15.614Z,105.90
2019-03-01T09:09:17.619Z,109.90
2019-03-01T09:10:16.580Z,112.30
2019-03-01T09:11:15.571Z,113.80
2019-03-01T09:12:15.591Z,106.60
2019-03-01T09:13:15.553Z,102.80
2019-03-01T09:14:15.548Z,97.90
2019-03-01T09:15:15.533Z,103.50
2019-03-01T09:16:15.516Z,97.30
2019-03-01T09:17:15.505Z,112.40
2019-03-01T09:18:15.528Z,112.30
2019-03-01T09:19:15.484Z,105.30
2019-03-01T09:20:15.477Z,100.30
2019-03-01T09:21:15.461Z,98.50
2019-03-01T09:22:15.450Z,104.20
2019-03-01T09:23:22.865Z,103.80
2019-03-01T09:24:16.457Z,104.50
2019-03-01T09:25:15.416Z,97.80
2019-03-01T09:26:16.715Z,100.00
2019-03-01T09:27:15.400Z,111.80
2019-03-01T09:28:15.411Z,105.90
2019-03-01T09:29:18.474Z,102.10
2019-03-01T09:30:15.401Z,98.80
2019-03-01T09:31:15.354Z,97.40
2019-03-01T09:32:15.366Z,107.20
2019-03-01T09:33:17.211Z,97.80
2019-03-01T09:34:16.329Z,99.20
2019-03-01T09:35:15.314Z,99.00
2019-03-01T09:36:17.833Z,97.60
2019-03-01T09:37:16.291Z,99.80
2019-03-01T09:38:15.282Z,99.60
2019-03-01T09:39:18.127Z,100.30
2019-03-01T09:40:15.266Z,100.30
2019-03-01T09:41:15.249Z,102.10
2019-03-01T09:42:15.671Z,97.50
2019-03-01T09:43:15.250Z,100.30
2019-03-01T09:44:15.224Z,101.40
2019-03-01T09:45:15.206Z,98.40
2019-03-01T09:46:15.198Z,96.40
2019-03-01T09:47:15.183Z,101.20
2019-03-01T09:48:15.175Z,99.20
2019-03-01T09:49:15.169Z,104.60
2019-03-01T09:50:15.197Z,106.30
2019-03-01T09:51:15.954Z,108.40
2019-03-01T09:52:15.131Z,107.80
2019-03-01T09:53:15.126Z,104.10
2019-03-01T09:54:15.104Z,105.70
2019-03-01T09:55:15.092Z,105.90
2019-03-01T09:56:15.092Z,105.40
2019-03-01T09:57:15.657Z,98.70
2019-03-01T09:58:15.062Z,104.40
2019-03-01T09:59:15.055Z,96.90
2019-03-01T10:00:15.046Z,99.00
2019-03-01T10:01:15.066Z,105.10
2019-03-01T10:02:15.022Z,100.20
2019-03-01T10:03:15.006Z,101.40
2019-03-01T10:04:15.009Z,106.00
2019-03-01T10:05:14.994Z,101.50
2019-03-01T10:06:14.986Z,99.80
2019-03-01T10:07:14.969Z,99.80
2019-03-01T10:08:14.955Z,99.80
2019-03-01T10:09:14.943Z,103.30
2019-03-01T10:10:14.938Z,101.30
2019-03-01T10:11:14.916Z,98.70
2019-03-01T10:12:14.913Z,89.80
2019-03-01T10:13:14.927Z,100.60
2019-03-01T10:14:14.882Z,99.70
2019-03-01T10:15:14.871Z,102.50
2019-03-01T10:16:14.862Z,100.40
2019-03-01T10:17:14.850Z,104.10
2019-03-01T10:18:14.836Z,90.50
2019-03-01T10:19:14.842Z,96.70
2019-03-01T10:20:14.820Z,103.50
2019-03-01T10:21:14.805Z,102.30
2019-03-01T10:22:14.800Z,101.40
2019-03-01T10:23:14.812Z,99.30
2019-03-01T10:24:14.785Z,100.10
2019-03-01T10:25:14.762Z,99.20
2019-03-01T10:26:14.746Z,96.50
2019-03-01T10:27:14.742Z,97.00
2019-03-01T10:28:14.724Z,101.60
2019-03-01T10:29:14.723Z,100.80
2019-03-01T10:30:14.703Z,104.50
2019-03-01T10:31:14.696Z,103.10
2019-03-01T10:32:14.689Z,97.50
2019-03-01T10:33:14.686Z,96.70
2019-03-01T10:34:14.663Z,96.40
2019-03-01T10:35:14.728Z,104.50
2019-03-01T10:36:14.636Z,99.40
2019-03-01T10:37:14.637Z,110.90
2019-03-01T10:38:14.622Z,96.50
2019-03-01T10:39:14.603Z,105.70
2019-03-01T10:40:14.607Z,105.00
2019-03-01T10:41:14.601Z,102.20
2019-03-01T10:42:14.579Z,96.90
2019-03-01T10:43:14.572Z,105.90
2019-03-01T10:44:14.555Z,104.80
2019-03-01T10:45:14.537Z,109.90
2019-03-01T10:46:14.543Z,100.50
2019-03-01T10:47:14.515Z,105.20
2019-03-01T10:48:14.502Z,98.80
2019-03-01T10:49:14.495Z,97.60
2019-03-01T10:50:14.487Z,105.50
2019-03-01T10:51:14.488Z,101.20
2019-03-01T10:52:14.465Z,100.10
2019-03-01T10:53:14.508Z,99.10
2019-03-01T10:54:14.442Z,103.40
2019-03-01T10:55:14.433Z,114.20
2019-03-01T10:56:14.450Z,102.00
2019-03-01T10:57:14.403Z,97.60
2019-03-01T10:58:14.399Z,95.60
2019-03-01T10:59:14.381Z,100.40
2019-03-01T11:00:14.375Z,100.90
2019-03-01T11:01:14.360Z,93.80
2019-03-01T11:02:14.367Z,92.60
2019-03-01T11:03:14.341Z,102.20
2019-03-01T11:04:14.339Z,94.10
2019-03-01T11:05:14.323Z,96.60
2019-03-01T11:06:14.313Z,93.60
2019-03-01T11:07:14.314Z,96.30
2019-03-01T11:08:14.290Z,98.40
2019-03-01T11:09:14.274Z,102.10
2019-03-01T11:10:14.265Z,106.70
2019-03-01T11:11:14.249Z,105.40
2019-03-01T11:12:14.253Z,101.70
2019-03-01T11:13:14.239Z,109.20
2019-03-01T11:14:14.224Z,106.20
2019-03-01T11:15:14.209Z,102.00
2019-03-01T11:16:14.202Z,106.70
2019-03-01T11:17:14.191Z,106.50
2019-03-01T11:18:14.223Z,104.50
2019-03-01T11:19:14.204Z,103.90
2019-03-01T11:20:14.147Z,104.70
2019-03-01T11:21:14.146Z,100.00
2019-03-01T11:22:14.124Z,106.20
2019-03-01T11:23:14.114Z,106.90
2019-03-01T11:24:14.119Z,98.10
2019-03-01T11:25:14.101Z,101.30
2019-03-01T11:26:14.079Z,106.00
2019-03-01T11:27:14.074Z,109.80
2019-03-01T11:28:14.107Z,111.00
2019-03-01T11:29:14.050Z,107.30
2019-03-01T11:30:14.038Z,109.00
2019-03-01T11:31:14.027Z,111.40
2019-03-01T11:32:14.012Z,114.00
2019-03-01T11:33:14.007Z,128.20
2019-03-01T11:34:13.996Z,118.50
2019-03-01T11:35:13.995Z,113.00
2019-03-01T11:36:13.983Z,142.80
2019-03-01T11:37:13.962Z,128.10
2019-03-01T11:38:13.950Z,144.50
2019-03-01T11:39:13.943Z,141.60
2019-03-01T11:40:13.940Z,140.10
2019-03-01T11:41:13.927Z,148.80
2019-03-01T11:42:13.908Z,150.50
2019-03-01T11:43:13.892Z,157.10
2019-03-01T11:44:13.891Z,158.20
2019-03-01T11:45:13.873Z,168.30
2019-03-01T11:46:13.874Z,163.70
2019-03-01T11:47:13.859Z,158.60
2019-03-01T11:48:13.842Z,160.30
2019-03-01T11:49:13.828Z,176.10
2019-03-01T11:50:13.815Z,184.90
2019-03-01T11:51:13.814Z,182.70
2019-03-01T11:52:13.798Z,175.00
2019-03-01T11:53:13.779Z,183.70
2019-03-01T11:54:13.768Z,183.00
2019-03-01T11:55:13.763Z,171.50
2019-03-01T11:56:13.801Z,173.50
2019-03-01T11:57:13.741Z,182.90
2019-03-01T11:58:13.735Z,186.50
2019-03-01T11:59:13.718Z,172.80
2019-03-01T12:00:13.710Z,174.20
2019-03-01T12:01:17.147Z,176.90
2019-03-01T12:02:13.693Z,184.40
2019-03-01T12:03:15.338Z,170.80
2019-03-01T12:04:13.687Z,188.20
2019-03-01T12:05:13.653Z,178.20
2019-03-01T12:06:13.640Z,190.30
2019-03-01T12:07:13.668Z,178.10
2019-03-01T12:08:13.623Z,172.10
2019-03-01T12:09:13.605Z,176.80
2019-03-01T12:10:13.597Z,186.60
2019-03-01T12:11:13.581Z,174.00
2019-03-01T12:12:13.574Z,180.30
2019-03-01T12:13:13.573Z,166.70
2019-03-01T12:14:13.554Z,178.80
2019-03-01T12:15:13.536Z,174.40
2019-03-01T12:16:13.573Z,178.70
2019-03-01T12:17:13.518Z,168.40
2019-03-01T12:18:13.509Z,176.50
2019-03-01T12:19:13.499Z,174.10
2019-03-01T12:20:13.487Z,179.80
2019-03-01T12:21:13.475Z,179.90
2019-03-01T12:22:17.217Z,168.00
2019-03-01T12:23:13.486Z,179.80
2019-03-01T12:24:13.440Z,170.90
2019-03-01T12:25:13.428Z,169.20
2019-03-01T12:26:13.417Z,162.30
2019-03-01T12:27:13.411Z,159.80
2019-03-01T12:28:13.401Z,175.20
2019-03-01T12:29:13.437Z,174.00
2019-03-01T12:30:13.379Z,160.60
2019-03-01T12:31:13.368Z,156.30
2019-03-01T12:32:13.351Z,163.80
2019-03-01T12:33:13.340Z,168.00
2019-03-01T12:34:13.328Z,165.90
2019-03-01T12:35:13.352Z,170.40
2019-03-01T12:36:13.309Z,165.50
2019-03-01T12:37:13.298Z,143.00
2019-03-01T12:38:13.284Z,146.70